createdAt,value
2017-07-26T00:00:14.425Z,2.30
2017-07-26T00:02:46.142Z,2.37
2017-07-26T00:05:17.587Z,3.20
2017-07-26T00:07:49.032Z,2.60
2017-07-26T00:10:22.316Z,2.37
2017-07-26T00:12:53.819Z,2.60
2017-07-26T00:15:25.937Z,2.50
2017-07-26T00:17:57.858Z,2.10
2017-07-26T00:20:29.339Z,2.60
2017-07-26T00:23:00.745Z,3.10
2017-07-26T00:25:32.246Z,4.63
2017-07-26T00:28:04.601Z,2.70
2017-07-26T00:30:35.985Z,12.07
2017-07-26T00:33:07.775Z,3.50
2017-07-26T00:35:39.167Z,3.23
2017-07-26T00:38:10.695Z,3.73
2017-07-26T00:40:42.835Z,6.97
2017-07-26T00:43:14.211Z,2.40
2017-07-26T00:45:45.608Z,2.73
2017-07-26T00:48:17.622Z,2.10
2017-07-26T00:50:49.064Z,2.83
2017-07-26T00:53:20.514Z,3.20
2017-07-26T00:55:51.968Z,3.17
2017-07-26T00:58:23.377Z,2.93
2017-07-26T01:00:54.795Z,4.70
2017-07-26T01:03:26.733Z,3.07
2017-07-26T01:05:58.171Z,4.00
2017-07-26T01:08:29.558Z,3.70
2017-07-26T01:11:00.975Z,3.17
2017-07-26T01:13:32.381Z,3.37
2017-07-26T01:16:04.969Z,4.43
2017-07-26T01:18:37.657Z,4.00
2017-07-26T01:21:09.172Z,4.70
2017-07-26T01:23:40.573Z,4.53
2017-07-26T01:26:12.993Z,8.03
2017-07-26T01:28:44.404Z,6.30
2017-07-26T01:31:15.832Z,4.80
2017-07-26T01:33:48.117Z,5.13
2017-07-26T01:36:20.635Z,4.20
2017-07-26T01:38:52.037Z,5.57
2017-07-26T01:41:24.389Z,10.33
2017-07-26T01:43:55.824Z,5.07
2017-07-26T01:46:27.221Z,4.90
2017-07-26T01:48:58.952Z,5.23
2017-07-26T01:51:30.378Z,7.73
2017-07-26T01:54:02.473Z,4.40
2017-07-26T01:56:33.909Z,5.40
2017-07-26T01:59:05.691Z,4.40
2017-07-26T02:01:37.120Z,5.00
2017-07-26T02:04:09.216Z,5.27
2017-07-26T02:06:41.306Z,5.13
2017-07-26T02:09:12.681Z,6.60
2017-07-26T02:11:44.076Z,5.30
2017-07-26T02:14:18.510Z,5.63
2017-07-26T02:16:50.464Z,6.60
2017-07-26T02:19:21.894Z,6.10
2017-07-26T02:21:53.290Z,9.50
2017-07-26T02:24:25.085Z,5.87
2017-07-26T02:26:56.570Z,6.53
2017-07-26T02:29:27.972Z,33.33
2017-07-26T02:31:59.699Z,7.70
2017-07-26T02:34:31.066Z,5.70
2017-07-26T02:37:02.506Z,5.60
2017-07-26T02:39:34.428Z,7.40
2017-07-26T02:42:07.160Z,6.10
2017-07-26T02:44:38.537Z,5.33
2017-07-26T02:47:10.384Z,5.63
2017-07-26T02:49:41.806Z,5.00
2017-07-26T02:52:13.321Z,7.97
2017-07-26T02:54:44.983Z,5.93
2017-07-26T02:57:16.373Z,5.00
2017-07-26T02:59:47.741Z,5.50
2017-07-26T03:02:20.133Z,5.20
2017-07-26T03:04:51.859Z,5.10
2017-07-26T03:07:23.285Z,6.63
2017-07-26T03:09:54.697Z,5.03
2017-07-26T03:12:26.535Z,5.00
2017-07-26T03:14:58.538Z,5.37
2017-07-26T03:17:30.075Z,6.40
2017-07-26T03:20:01.510Z,5.60
2017-07-26T03:22:33.345Z,5.67
2017-07-26T03:25:04.735Z,5.80
2017-07-26T03:27:36.146Z,6.20
2017-07-26T03:30:08.146Z,8.00
2017-07-26T03:32:39.499Z,8.90
2017-07-26T03:35:10.849Z,8.33
2017-07-26T03:37:42.714Z,8.63
2017-07-26T03:40:14.317Z,9.37
2017-07-26T03:42:45.688Z,10.90
2017-07-26T03:45:17.424Z,8.90
2017-07-26T03:47:48.885Z,10.20
2017-07-26T03:50:20.267Z,10.77
2017-07-26T03:52:52.106Z,10.57
2017-07-26T03:55:23.521Z,11.47
2017-07-26T03:57:55.141Z,10.40
2017-07-26T04:00:26.611Z,10.00
2017-07-26T04:02:58.299Z,11.23
2017-07-26T04:05:29.706Z,11.70
2017-07-26T04:08:01.091Z,12.00
2017-07-26T04:10:32.523Z,11.90
2017-07-26T04:13:03.958Z,11.47
2017-07-26T04:15:35.351Z,14.17
2017-07-26T04:18:07.366Z,11.27
2017-07-26T04:20:38.815Z,14.43
2017-07-26T04:23:10.832Z,14.00
2017-07-26T04:25:42.230Z,14.50
2017-07-26T04:28:13.705Z,12.77
2017-07-26T04:30:45.119Z,13.37
2017-07-26T04:33:16.821Z,15.07
2017-07-26T04:35:48.257Z,14.40
2017-07-26T04:38:19.670Z,16.40
2017-07-26T04:40:51.020Z,15.50
2017-07-26T04:43:22.481Z,13.70
2017-07-26T04:45:53.893Z,13.93
2017-07-26T04:48:25.822Z,17.27
2017-07-26T04:50:57.239Z,13.93
2017-07-26T04:53:28.653Z,13.80
2017-07-26T04:56:00.378Z,15.13
2017-07-26T04:58:31.769Z,13.53
2017-07-26T05:01:03.237Z,12.70
2017-07-26T05:03:35.010Z,13.63
2017-07-26T05:06:08.046Z,13.30
2017-07-26T05:08:39.509Z,11.80
2017-07-26T05:11:10.941Z,12.63
2017-07-26T05:13:42.479Z,11.00
2017-07-26T05:16:14.047Z,11.50
2017-07-26T05:18:45.933Z,11.27
2017-07-26T05:21:17.414Z,16.47
2017-07-26T05:23:48.893Z,10.90
2017-07-26T05:26:20.476Z,11.60
2017-07-26T05:28:52.024Z,10.43
2017-07-26T05:31:23.459Z,13.53
2017-07-26T05:33:55.310Z,11.10
2017-07-26T05:36:26.710Z,10.10
2017-07-26T05:38:58.096Z,10.43
2017-07-26T05:41:29.712Z,11.00
2017-07-26T05:44:01.155Z,12.43
2017-07-26T05:46:32.539Z,10.07
2017-07-26T05:49:04.431Z,12.37
2017-07-26T05:51:35.917Z,7.90
2017-07-26T05:54:07.382Z,11.07
2017-07-26T05:56:38.788Z,10.40
2017-07-26T05:59:10.217Z,8.40
2017-07-26T06:01:41.755Z,13.73
2017-07-26T06:04:15.162Z,6.63
2017-07-26T06:06:46.624Z,5.47
2017-07-26T06:09:18.141Z,4.60
2017-07-26T06:11:49.625Z,4.57
2017-07-26T06:14:21.052Z,3.90
2017-07-26T06:16:52.476Z,4.23
2017-07-26T06:19:24.296Z,4.43
2017-07-26T06:21:55.868Z,3.50
2017-07-26T06:24:27.273Z,4.20
2017-07-26T06:26:58.729Z,4.10
2017-07-26T06:29:30.093Z,4.10
2017-07-26T06:32:03.572Z,6.00
2017-07-26T06:34:36.469Z,4.20
2017-07-26T06:37:07.875Z,3.67
2017-07-26T06:39:40.007Z,4.20
2017-07-26T06:42:12.226Z,7.50
2017-07-26T06:44:44.542Z,5.93
2017-07-26T06:47:18.425Z,4.13
2017-07-26T06:49:53.045Z,4.60
2017-07-26T06:52:24.729Z,4.77
2017-07-26T06:54:56.119Z,8.43
2017-07-26T06:57:27.531Z,4.20
2017-07-26T06:59:59.022Z,4.33
2017-07-26T07:02:30.409Z,5.40
2017-07-26T07:05:02.251Z,5.23
2017-07-26T07:07:33.674Z,8.07
2017-07-26T07:10:06.000Z,5.37
2017-07-26T07:12:37.808Z,5.23
2017-07-26T07:15:10.219Z,5.87
2017-07-26T07:17:42.145Z,6.10
2017-07-26T07:20:15.961Z,10.70
2017-07-26T07:22:47.866Z,5.70
2017-07-26T07:25:19.359Z,6.10
2017-07-26T07:27:50.916Z,7.57
2017-07-26T07:30:22.397Z,7.07
2017-07-26T07:32:54.020Z,10.10
2017-07-26T07:35:25.962Z,11.40
2017-07-26T07:37:57.942Z,10.53
2017-07-26T07:40:29.432Z,8.30
2017-07-26T07:43:05.250Z,13.20
2017-07-26T07:45:37.046Z,6.73
2017-07-26T07:48:09.636Z,11.07
2017-07-26T07:50:42.041Z,9.17
2017-07-26T07:53:14.063Z,7.67
2017-07-26T07:55:48.005Z,15.03
2017-07-26T07:58:24.220Z,9.93
2017-07-26T08:01:03.217Z,7.53
2017-07-26T08:03:40.435Z,7.60
2017-07-26T08:06:13.548Z,8.83
2017-07-26T08:08:47.129Z,7.60
2017-07-26T08:11:23.380Z,13.10
2017-07-26T08:13:57.595Z,10.70
2017-07-26T08:16:30.046Z,7.80
2017-07-26T08:19:07.187Z,11.97
2017-07-26T08:21:40.502Z,7.63
2017-07-26T08:27:24.536Z,7.70
2017-07-26T08:30:19.565Z,6.73
2017-07-26T08:35:48.630Z,10.67
2017-07-26T08:38:39.398Z,6.50
2017-07-26T08:41:18.172Z,6.83
2017-07-26T08:43:56.109Z,6.90
2017-07-26T08:46:37.678Z,15.47
2017-07-26T08:49:24.724Z,9.20
2017-07-26T08:52:07.188Z,6.73
2017-07-26T08:54:47.111Z,8.97
2017-07-26T08:57:31.010Z,7.80
2017-07-26T09:03:08.268Z,7.93
2017-07-26T09:39:48.817Z,7.40
2017-07-26T10:11:01.788Z,4.63
2017-07-26T10:15:30.338Z,5.47
2017-07-26T10:18:28.211Z,7.73
2017-07-26T10:21:26.970Z,4.27
2017-07-26T10:31:40.649Z,8.63
2017-07-26T10:34:19.367Z,14.03
2017-07-26T10:36:54.681Z,6.73
2017-07-26T10:39:30.755Z,5.80
2017-07-26T10:42:06.967Z,6.30
2017-07-26T10:44:40.326Z,9.90
2017-07-26T10:47:14.757Z,5.50
2017-07-26T10:49:47.077Z,3.57
2017-07-26T10:52:21.489Z,6.30
2017-07-26T10:54:55.860Z,4.53
2017-07-26T10:57:29.645Z,5.80
2017-07-26T11:00:09.878Z,7.90
2017-07-26T11:02:54.830Z,7.37
2017-07-26T11:05:40.096Z,6.30
2017-07-26T11:08:21.300Z,5.13
2017-07-26T11:10:57.155Z,7.20
2017-07-26T11:13:31.454Z,6.10
2017-07-26T11:16:07.436Z,6.97
2017-07-26T11:18:41.920Z,8.90
2017-07-26T11:21:17.747Z,6.27
2017-07-26T11:23:51.743Z,4.97
2017-07-26T11:26:28.833Z,8.90
2017-07-26T11:29:05.423Z,12.80
2017-07-26T11:31:46.424Z,6.03
2017-07-26T11:34:29.442Z,13.97
2017-07-26T11:37:10.486Z,6.00
2017-07-26T11:42:38.124Z,18.43
2017-07-26T11:45:10.065Z,7.60
2017-07-26T11:47:42.054Z,5.83
2017-07-26T11:50:13.889Z,5.20
2017-07-26T11:52:45.990Z,7.80
2017-07-26T11:55:17.614Z,7.70
2017-07-26T11:57:49.009Z,5.03
2017-07-26T12:00:20.932Z,7.53
2017-07-26T12:02:52.372Z,7.10
2017-07-26T12:05:23.988Z,8.67
2017-07-26T12:07:55.977Z,5.30
2017-07-26T12:10:27.424Z,14.33
2017-07-26T12:12:58.848Z,6.20
2017-07-26T12:15:30.758Z,7.30
2017-07-26T12:18:03.883Z,6.50
2017-07-26T12:20:35.394Z,7.27
2017-07-26T12:23:10.489Z,7.93
2017-07-26T12:25:42.110Z,10.73
2017-07-26T12:28:13.626Z,12.07
2017-07-26T12:30:45.408Z,4.60
2017-07-26T12:33:16.933Z,4.20
2017-07-26T12:35:48.745Z,8.27
2017-07-26T12:38:20.342Z,3.40
2017-07-26T12:40:51.948Z,13.37
2017-07-26T12:43:23.907Z,3.77
2017-07-26T12:45:55.396Z,15.10
2017-07-26T12:48:26.847Z,2.70
2017-07-26T12:50:58.651Z,3.57
2017-07-26T12:53:30.078Z,8.53
2017-07-26T12:56:03.176Z,5.50
2017-07-26T12:58:34.984Z,2.50
2017-07-26T13:01:06.360Z,6.27
2017-07-26T13:03:37.763Z,13.37
2017-07-26T13:06:09.499Z,2.67
2017-07-26T13:08:40.848Z,12.43
2017-07-26T13:11:12.441Z,11.67
2017-07-26T13:13:44.412Z,3.03
2017-07-26T13:16:16.341Z,3.87
2017-07-26T13:18:47.761Z,14.13
2017-07-26T13:21:19.435Z,6.63
2017-07-26T13:23:50.869Z,5.43
2017-07-26T13:26:22.278Z,3.00
2017-07-26T13:28:54.000Z,5.27
2017-07-26T13:31:25.408Z,4.70
2017-07-26T13:33:57.210Z,3.57
2017-07-26T13:36:28.856Z,3.70
2017-07-26T13:39:00.257Z,5.73
2017-07-26T13:41:31.596Z,3.97
2017-07-26T13:44:05.066Z,4.47
2017-07-26T13:46:36.498Z,5.80
2017-07-26T13:49:08.177Z,9.70
2017-07-26T13:51:39.524Z,10.07
2017-07-26T13:54:13.610Z,13.00
2017-07-26T13:56:46.517Z,7.90
2017-07-26T13:59:19.526Z,6.23
2017-07-26T14:01:51.224Z,3.87
2017-07-26T14:04:25.181Z,10.13
2017-07-26T14:06:59.337Z,4.30
2017-07-26T14:09:34.368Z,4.00
2017-07-26T14:12:09.005Z,5.07
2017-07-26T14:14:44.149Z,50.57
2017-07-26T14:20:12.924Z,51.23
2017-07-26T14:22:45.219Z,54.07
2017-07-26T14:25:17.564Z,52.37
2017-07-26T14:27:48.987Z,42.70
2017-07-26T14:30:20.712Z,35.07
2017-07-26T14:32:52.251Z,28.20
2017-07-26T14:35:23.954Z,8.70
2017-07-26T14:37:55.419Z,12.07
2017-07-26T14:40:27.417Z,15.43
2017-07-26T14:42:59.733Z,3.70
2017-07-26T14:45:31.474Z,5.27
2017-07-26T14:48:05.171Z,22.37
2017-07-26T14:50:37.220Z,41.43
2017-07-26T14:53:09.544Z,14.57
2017-07-26T14:55:41.932Z,13.93
2017-07-26T14:58:14.430Z,9.03
2017-07-26T15:00:46.469Z,23.67
2017-07-26T15:03:18.187Z,18.87
2017-07-26T15:05:50.807Z,15.17
2017-07-26T15:08:22.998Z,15.17
2017-07-26T15:10:55.050Z,22.17
2017-07-26T15:13:26.501Z,3.10
2017-07-26T15:15:59.865Z,2.97
2017-07-26T15:18:31.526Z,33.13
2017-07-26T15:21:03.939Z,33.30
2017-07-26T15:23:35.915Z,10.13
2017-07-26T15:26:08.766Z,31.50
2017-07-26T15:28:40.661Z,31.07
2017-07-26T15:31:13.046Z,37.27
2017-07-26T15:33:44.554Z,41.67
2017-07-26T15:36:21.064Z,41.77
2017-07-26T15:38:52.627Z,39.70
2017-07-26T15:41:24.079Z,38.10
2017-07-26T15:43:55.862Z,40.40
2017-07-26T15:46:27.938Z,36.27
2017-07-26T15:48:59.920Z,32.30
2017-07-26T15:51:31.923Z,33.10
2017-07-26T15:54:08.295Z,25.20
2017-07-26T15:56:40.108Z,14.03
2017-07-26T15:59:11.695Z,6.30
2017-07-26T16:01:44.388Z,9.63
2017-07-26T16:04:16.546Z,11.23
2017-07-26T16:06:48.382Z,14.17
2017-07-26T16:09:20.237Z,14.37
2017-07-26T16:11:51.872Z,4.20
2017-07-26T16:14:24.949Z,4.87
2017-07-26T16:16:56.626Z,3.33
2017-07-26T16:19:28.196Z,5.23
2017-07-26T16:22:00.043Z,3.00
2017-07-26T16:24:31.884Z,3.73
2017-07-26T16:27:03.702Z,4.00
2017-07-26T16:29:35.134Z,3.40
2017-07-26T16:32:07.188Z,3.20
2017-07-26T16:34:38.691Z,4.80
2017-07-26T16:37:10.262Z,5.43
2017-07-26T16:39:43.640Z,6.30
2017-07-26T16:42:16.237Z,6.87
2017-07-26T16:44:49.399Z,7.13
2017-07-26T16:47:21.818Z,3.20
2017-07-26T16:49:53.280Z,3.87
2017-07-26T16:52:26.085Z,4.40
2017-07-26T16:54:57.988Z,4.03
2017-07-26T16:57:30.801Z,4.00
2017-07-26T17:00:07.532Z,4.20
2017-07-26T17:02:40.772Z,3.33
2017-07-26T17:05:13.729Z,4.23
2017-07-26T17:07:46.958Z,5.00
2017-07-26T17:10:20.101Z,4.37
2017-07-26T17:12:51.755Z,7.63
2017-07-26T17:15:24.020Z,3.93
2017-07-26T17:18:05.900Z,8.73
2017-07-26T17:20:44.903Z,4.07
2017-07-26T17:23:19.137Z,4.47
2017-07-26T17:25:50.621Z,4.80
2017-07-26T17:28:22.609Z,6.73
2017-07-26T17:30:56.483Z,4.27
2017-07-26T17:33:29.299Z,3.80
2017-07-26T17:36:03.674Z,8.83
2017-07-26T17:38:35.290Z,4.47
2017-07-26T17:41:07.478Z,4.20
2017-07-26T17:43:42.703Z,3.53
2017-07-26T17:46:14.921Z,4.17
2017-07-26T17:48:48.818Z,3.83
2017-07-26T17:51:21.735Z,3.00
2017-07-26T17:53:53.904Z,3.90
2017-07-26T17:56:29.867Z,3.20
2017-07-26T17:59:14.689Z,4.27
2017-07-26T18:01:49.539Z,3.40
2017-07-26T18:04:21.818Z,2.40
2017-07-26T18:07:01.004Z,3.00
2017-07-26T18:09:35.656Z,3.93
2017-07-26T18:12:13.333Z,2.83
2017-07-26T18:14:45.250Z,3.13
2017-07-26T18:17:19.721Z,3.63
2017-07-26T18:19:52.304Z,2.90
2017-07-26T18:22:24.432Z,3.07
2017-07-26T18:24:57.932Z,2.60
2017-07-26T18:27:34.624Z,6.23
2017-07-26T18:30:11.619Z,5.40
2017-07-26T18:32:45.106Z,5.23
2017-07-26T18:35:22.079Z,2.70
2017-07-26T18:37:58.951Z,3.03
2017-07-26T18:40:35.198Z,4.20
2017-07-26T18:43:12.343Z,2.90
2017-07-26T18:45:44.401Z,3.83
2017-07-26T18:48:20.824Z,7.63
2017-07-26T18:50:52.547Z,5.13
2017-07-26T18:53:24.309Z,2.77
2017-07-26T18:55:56.171Z,3.67
2017-07-26T18:58:27.781Z,5.63
2017-07-26T19:00:59.424Z,5.10
2017-07-26T19:03:31.321Z,8.83
2017-07-26T19:06:03.722Z,6.00
2017-07-26T19:08:35.356Z,4.03
2017-07-26T19:11:08.581Z,2.73
2017-07-26T19:13:40.874Z,2.90
2017-07-26T19:16:12.636Z,3.23
2017-07-26T19:18:44.883Z,2.57
2017-07-26T19:21:16.301Z,2.63
2017-07-26T19:23:48.834Z,2.50
2017-07-26T19:26:20.377Z,2.87
2017-07-26T19:28:52.153Z,2.93
2017-07-26T19:31:23.757Z,2.80
2017-07-26T19:33:55.171Z,3.07
2017-07-26T19:36:27.093Z,3.13
2017-07-26T19:38:58.502Z,3.50
2017-07-26T19:41:30.165Z,2.87
2017-07-26T19:44:02.185Z,3.23
2017-07-26T19:46:34.135Z,5.97
2017-07-26T19:49:05.610Z,4.17
2017-07-26T19:51:37.271Z,3.10
2017-07-26T19:54:15.420Z,4.03
2017-07-26T19:56:47.221Z,4.03
2017-07-26T19:59:35.090Z,7.27
2017-07-26T20:05:04.770Z,4.43
2017-07-26T20:07:38.995Z,4.77
2017-07-26T20:10:12.814Z,5.47
2017-07-26T20:12:45.725Z,3.50
2017-07-26T20:15:18.694Z,3.47
2017-07-26T20:17:53.742Z,3.70
2017-07-26T20:20:29.993Z,3.30
2017-07-26T20:23:06.299Z,4.73
2017-07-26T20:25:41.039Z,3.50
2017-07-26T20:28:15.588Z,5.27
2017-07-26T20:30:48.586Z,4.30
2017-07-26T20:33:20.312Z,4.37
2017-07-26T20:35:51.877Z,6.17
2017-07-26T20:38:24.378Z,4.90
2017-07-26T20:40:56.024Z,4.40
2017-07-26T20:43:28.252Z,11.87
2017-07-26T20:46:00.441Z,4.27
2017-07-26T20:48:32.379Z,4.50
2017-07-26T20:51:04.861Z,6.33
2017-07-26T20:53:36.900Z,4.77
2017-07-26T20:56:13.435Z,6.10
2017-07-26T20:58:45.937Z,3.90
2017-07-26T21:01:18.311Z,8.33
2017-07-26T21:03:50.365Z,6.40
2017-07-26T21:06:23.815Z,4.70
2017-07-26T21:08:56.263Z,4.70
2017-07-26T21:11:28.689Z,4.73
2017-07-26T21:14:00.417Z,5.50
2017-07-26T21:16:32.563Z,43.23
2017-07-26T21:19:06.560Z,4.47
2017-07-26T21:21:38.162Z,4.43
2017-07-26T21:24:10.800Z,6.83
2017-07-26T21:26:42.373Z,5.80
2017-07-26T21:29:14.994Z,11.77
2017-07-26T21:31:46.502Z,4.27
2017-07-26T21:34:20.067Z,5.93
2017-07-26T21:36:53.323Z,4.30
2017-07-26T21:39:25.243Z,5.03
2017-07-26T21:41:57.053Z,4.30
2017-07-26T21:44:30.379Z,3.80
2017-07-26T21:47:03.908Z,6.63
2017-07-26T21:49:37.685Z,9.23
2017-07-26T21:52:09.986Z,6.03
2017-07-26T21:54:42.902Z,5.00
2017-07-26T21:57:15.211Z,4.60
2017-07-26T21:59:47.141Z,5.53
2017-07-26T22:02:20.477Z,5.03
2017-07-26T22:04:52.801Z,4.70
2017-07-26T22:07:24.803Z,7.30
2017-07-26T22:09:57.205Z,9.07
2017-07-26T22:12:31.081Z,6.30
2017-07-26T22:15:03.778Z,8.00
2017-07-26T22:17:37.033Z,6.50
2017-07-26T22:20:08.499Z,6.40
2017-07-26T22:22:39.893Z,9.20
2017-07-26T22:25:11.591Z,5.27
2017-07-26T22:27:43.652Z,5.23
2017-07-26T22:32:50.634Z,11.10
2017-07-26T22:35:22.316Z,6.10
2017-07-26T22:37:54.593Z,7.57
2017-07-26T22:40:26.063Z,81.03
2017-07-26T22:42:59.127Z,7.47
2017-07-26T22:45:31.288Z,6.07
2017-07-26T22:48:03.499Z,9.03
2017-07-26T22:50:36.803Z,5.17
2017-07-26T22:53:09.113Z,6.80
2017-07-26T22:55:40.693Z,5.30
2017-07-26T22:58:14.355Z,6.97
2017-07-26T23:00:46.152Z,5.50
2017-07-26T23:03:17.676Z,8.93
2017-07-26T23:05:49.216Z,9.63
2017-07-26T23:08:22.370Z,5.93
2017-07-26T23:10:56.459Z,5.40
2017-07-26T23:13:30.635Z,5.30
2017-07-26T23:16:08.171Z,5.07
2017-07-26T23:18:44.642Z,9.27
2017-07-26T23:21:21.292Z,5.77
2017-07-26T23:23:53.267Z,4.97
2017-07-26T23:26:24.660Z,4.80
2017-07-26T23:28:55.990Z,5.43
2017-07-26T23:31:58.132Z,5.33
2017-07-26T23:34:29.420Z,4.93
2017-07-26T23:37:00.727Z,5.97
2017-07-26T23:39:32.417Z,8.07
2017-07-26T23:42:04.576Z,10.80
2017-07-26T23:44:36.187Z,7.70
2017-07-26T23:47:07.484Z,5.70
2017-07-26T23:49:38.759Z,14.93
2017-07-26T23:52:14.572Z,7.10
2017-07-26T23:54:45.875Z,4.93
2017-07-26T23:57:17.653Z,7.63
2017-07-26T23:59:48.929Z,5.77
